Crystal, Minnesota
Current Conditions -  °F | °C
As of 2:53 PM on Friday 31 Oct 2014 (Local Time) from KMIC Reporting Station
Clear Clear  
Wind Chill: 33°   Ceiling: Unl
Heat Index: 40°   Visibility: 10mi
Dew Point: 15°   Wind: 12mph
Humidity: 36%   Direction: 340°NNW
Pressure: 30.5"   Gusts: NA
Location:  45.03°N, 93.36°W
Report Text: KMIC 311953Z 34010KT 10SM CLR 04/M09 A3050 RMK AO2 SLP340 T00441094
Loading
Personal Weather Stations






























Interactive Weather Map
Tropical Storm Tracking
New forecast layout! Learn more

10-Day Weather Forecast

Advertisements
Track Severe Weather on mobile